sensor_id;sensor_type;location;lat;lon;timestamp;P1;durP1;ratioP1;P2;durP2;ratioP2
68993;SDS011;56054;50.968;5.816;2023-10-13T00:00:10;18.23;;;8.65;;
68993;SDS011;56054;50.968;5.816;2023-10-13T00:03:18;12.73;;;8.35;;
68993;SDS011;56054;50.968;5.816;2023-10-13T00:06:25;15.27;;;8.45;;
68993;SDS011;56054;50.968;5.816;2023-10-13T00:09:32;15.90;;;8.32;;
68993;SDS011;56054;50.968;5.816;2023-10-13T00:12:39;15.95;;;8.75;;
68993;SDS011;56054;50.968;5.816;2023-10-13T00:15:46;19.80;;;8.23;;
68993;SDS011;56054;50.968;5.816;2023-10-13T00:18:54;21.02;;;9.20;;
68993;SDS011;56054;50.968;5.816;2023-10-13T00:22:01;16.73;;;8.30;;
68993;SDS011;56054;50.968;5.816;2023-10-13T00:25:09;18.13;;;8.13;;
68993;SDS011;56054;50.968;5.816;2023-10-13T00:28:16;16.38;;;8.32;;
68993;SDS011;56054;50.968;5.816;2023-10-13T00:31:25;15.05;;;8.40;;
68993;SDS011;56054;50.968;5.816;2023-10-13T00:34:32;17.02;;;8.40;;
68993;SDS011;56054;50.968;5.816;2023-10-13T00:37:40;14.82;;;8.88;;
68993;SDS011;56054;50.968;5.816;2023-10-13T00:40:46;19.80;;;8.27;;
68993;SDS011;56054;50.968;5.816;2023-10-13T00:43:53;16.83;;;8.50;;
68993;SDS011;56054;50.968;5.816;2023-10-13T00:47:00;19.98;;;9.18;;
68993;SDS011;56054;50.968;5.816;2023-10-13T00:50:07;15.05;;;8.57;;
68993;SDS011;56054;50.968;5.816;2023-10-13T00:53:14;16.23;;;8.18;;
68993;SDS011;56054;50.968;5.816;2023-10-13T00:56:23;21.27;;;9.95;;
68993;SDS011;56054;50.968;5.816;2023-10-13T00:59:33;20.60;;;8.98;;
68993;SDS011;56054;50.968;5.816;2023-10-13T01:02:40;23.88;;;9.23;;
68993;SDS011;56054;50.968;5.816;2023-10-13T01:05:48;16.63;;;8.95;;
68993;SDS011;56054;50.968;5.816;2023-10-13T01:09:02;15.68;;;9.23;;
68993;SDS011;56054;50.968;5.816;2023-10-13T01:12:11;15.02;;;8.82;;
68993;SDS011;56054;50.968;5.816;2023-10-13T01:15:18;18.10;;;10.15;;
68993;SDS011;56054;50.968;5.816;2023-10-13T01:18:25;19.58;;;9.80;;
68993;SDS011;56054;50.968;5.816;2023-10-13T01:21:32;18.48;;;9.27;;
68993;SDS011;56054;50.968;5.816;2023-10-13T01:24:39;17.50;;;9.45;;
68993;SDS011;56054;50.968;5.816;2023-10-13T01:27:46;18.70;;;9.77;;
68993;SDS011;56054;50.968;5.816;2023-10-13T01:30:53;19.52;;;10.27;;
68993;SDS011;56054;50.968;5.816;2023-10-13T01:34:00;16.83;;;9.57;;
68993;SDS011;56054;50.968;5.816;2023-10-13T01:37:07;18.77;;;9.68;;
68993;SDS011;56054;50.968;5.816;2023-10-13T01:40:14;15.20;;;9.73;;
68993;SDS011;56054;50.968;5.816;2023-10-13T01:43:21;13.85;;;9.07;;
68993;SDS011;56054;50.968;5.816;2023-10-13T01:46:28;17.55;;;10.90;;
68993;SDS011;56054;50.968;5.816;2023-10-13T01:49:35;15.32;;;10.40;;
68993;SDS011;56054;50.968;5.816;2023-10-13T01:52:42;16.30;;;10.13;;
68993;SDS011;56054;50.968;5.816;2023-10-13T01:55:49;16.98;;;10.20;;
68993;SDS011;56054;50.968;5.816;2023-10-13T01:58:56;17.25;;;9.70;;
68993;SDS011;56054;50.968;5.816;2023-10-13T02:02:03;26.02;;;11.10;;
68993;SDS011;56054;50.968;5.816;2023-10-13T02:05:11;19.35;;;10.32;;
68993;SDS011;56054;50.968;5.816;2023-10-13T02:08:18;24.00;;;10.38;;
68993;SDS011;56054;50.968;5.816;2023-10-13T02:11:27;23.08;;;10.70;;
68993;SDS011;56054;50.968;5.816;2023-10-13T02:14:33;18.80;;;10.50;;
68993;SDS011;56054;50.968;5.816;2023-10-13T02:17:40;28.13;;;11.68;;
68993;SDS011;56054;50.968;5.816;2023-10-13T02:20:47;19.02;;;10.40;;
68993;SDS011;56054;50.968;5.816;2023-10-13T02:23:54;24.88;;;11.02;;
68993;SDS011;56054;50.968;5.816;2023-10-13T02:27:01;19.58;;;9.98;;
68993;SDS011;56054;50.968;5.816;2023-10-13T02:30:09;16.77;;;10.48;;
68993;SDS011;56054;50.968;5.816;2023-10-13T02:33:17;26.27;;;12.05;;
68993;SDS011;56054;50.968;5.816;2023-10-13T02:36:23;22.60;;;10.90;;
68993;SDS011;56054;50.968;5.816;2023-10-13T02:39:30;20.42;;;10.68;;
68993;SDS011;56054;50.968;5.816;2023-10-13T02:42:37;17.25;;;9.50;;
68993;SDS011;56054;50.968;5.816;2023-10-13T02:45:51;19.83;;;10.77;;
68993;SDS011;56054;50.968;5.816;2023-10-13T02:48:58;19.42;;;9.45;;
68993;SDS011;56054;50.968;5.816;2023-10-13T02:52:06;19.25;;;9.75;;
68993;SDS011;56054;50.968;5.816;2023-10-13T02:55:13;15.00;;;10.45;;
68993;SDS011;56054;50.968;5.816;2023-10-13T02:58:20;17.90;;;9.30;;
68993;SDS011;56054;50.968;5.816;2023-10-13T03:01:27;22.88;;;9.70;;
68993;SDS011;56054;50.968;5.816;2023-10-13T03:04:34;16.90;;;10.23;;
68993;SDS011;56054;50.968;5.816;2023-10-13T03:07:41;15.48;;;9.27;;
68993;SDS011;56054;50.968;5.816;2023-10-13T03:10:48;13.85;;;8.75;;
68993;SDS011;56054;50.968;5.816;2023-10-13T03:13:55;18.23;;;9.38;;
68993;SDS011;56054;50.968;5.816;2023-10-13T03:17:03;23.08;;;8.88;;
68993;SDS011;56054;50.968;5.816;2023-10-13T03:20:10;16.05;;;8.43;;
68993;SDS011;56054;50.968;5.816;2023-10-13T03:23:22;17.30;;;8.18;;
68993;SDS011;56054;50.968;5.816;2023-10-13T03:26:28;16.08;;;8.77;;
68993;SDS011;56054;50.968;5.816;2023-10-13T03:29:36;15.35;;;8.82;;
68993;SDS011;56054;50.968;5.816;2023-10-13T03:32:43;20.13;;;8.05;;
68993;SDS011;56054;50.968;5.816;2023-10-13T03:35:50;11.30;;;8.13;;
68993;SDS011;56054;50.968;5.816;2023-10-13T03:38:57;15.45;;;7.85;;
68993;SDS011;56054;50.968;5.816;2023-10-13T03:42:04;17.42;;;7.78;;
68993;SDS011;56054;50.968;5.816;2023-10-13T03:45:11;11.38;;;7.60;;
68993;SDS011;56054;50.968;5.816;2023-10-13T03:48:19;14.43;;;7.20;;
68993;SDS011;56054;50.968;5.816;2023-10-13T03:51:25;14.02;;;7.15;;
68993;SDS011;56054;50.968;5.816;2023-10-13T03:54:32;16.60;;;8.02;;
68993;SDS011;56054;50.968;5.816;2023-10-13T03:57:39;13.32;;;7.63;;
68993;SDS011;56054;50.968;5.816;2023-10-13T04:00:46;11.63;;;6.97;;
68993;SDS011;56054;50.968;5.816;2023-10-13T04:03:53;17.02;;;7.43;;
68993;SDS011;56054;50.968;5.816;2023-10-13T04:07:01;19.67;;;7.88;;
68993;SDS011;56054;50.968;5.816;2023-10-13T04:10:08;12.90;;;7.40;;
68993;SDS011;56054;50.968;5.816;2023-10-13T04:13:15;16.67;;;6.95;;
68993;SDS011;56054;50.968;5.816;2023-10-13T04:16:22;12.63;;;7.07;;
68993;SDS011;56054;50.968;5.816;2023-10-13T04:19:29;16.58;;;6.97;;
68993;SDS011;56054;50.968;5.816;2023-10-13T04:22:37;13.18;;;6.88;;
68993;SDS011;56054;50.968;5.816;2023-10-13T04:25:49;16.95;;;6.95;;
68993;SDS011;56054;50.968;5.816;2023-10-13T04:28:56;11.48;;;5.88;;
68993;SDS011;56054;50.968;5.816;2023-10-13T04:32:03;17.75;;;6.05;;
68993;SDS011;56054;50.968;5.816;2023-10-13T04:35:10;17.15;;;7.70;;
68993;SDS011;56054;50.968;5.816;2023-10-13T04:38:17;14.13;;;6.65;;
68993;SDS011;56054;50.968;5.816;2023-10-13T04:44:35;15.85;;;7.28;;
68993;SDS011;56054;50.968;5.816;2023-10-13T04:47:42;12.30;;;6.28;;
68993;SDS011;56054;50.968;5.816;2023-10-13T04:50:49;14.77;;;7.03;;
68993;SDS011;56054;50.968;5.816;2023-10-13T04:53:56;10.40;;;6.28;;
68993;SDS011;56054;50.968;5.816;2023-10-13T04:57:03;23.05;;;7.47;;
68993;SDS011;56054;50.968;5.816;2023-10-13T05:00:11;12.70;;;5.32;;
68993;SDS011;56054;50.968;5.816;2023-10-13T05:03:25;19.08;;;6.15;;
68993;SDS011;56054;50.968;5.816;2023-10-13T05:06:32;14.18;;;5.95;;
68993;SDS011;56054;50.968;5.816;2023-10-13T05:09:39;16.23;;;6.18;;
68993;SDS011;56054;50.968;5.816;2023-10-13T05:12:46;11.95;;;5.90;;
68993;SDS011;56054;50.968;5.816;2023-10-13T05:15:53;17.63;;;6.70;;
68993;SDS011;56054;50.968;5.816;2023-10-13T05:19:00;15.82;;;7.13;;
68993;SDS011;56054;50.968;5.816;2023-10-13T05:22:07;16.90;;;7.20;;
68993;SDS011;56054;50.968;5.816;2023-10-13T05:25:14;19.20;;;6.43;;
68993;SDS011;56054;50.968;5.816;2023-10-13T05:28:22;21.17;;;6.13;;
68993;SDS011;56054;50.968;5.816;2023-10-13T05:31:29;19.27;;;7.78;;
68993;SDS011;56054;50.968;5.816;2023-10-13T05:34:35;13.07;;;6.75;;
68993;SDS011;56054;50.968;5.816;2023-10-13T05:37:42;18.95;;;7.15;;
68993;SDS011;56054;50.968;5.816;2023-10-13T05:40:57;11.93;;;6.22;;
68993;SDS011;56054;50.968;5.816;2023-10-13T05:44:04;11.85;;;5.57;;
68993;SDS011;56054;50.968;5.816;2023-10-13T05:47:13;14.23;;;6.20;;
68993;SDS011;56054;50.968;5.816;2023-10-13T05:50:20;17.15;;;5.78;;
68993;SDS011;56054;50.968;5.816;2023-10-13T05:53:27;15.68;;;5.88;;
68993;SDS011;56054;50.968;5.816;2023-10-13T05:56:34;14.35;;;6.50;;
68993;SDS011;56054;50.968;5.816;2023-10-13T05:59:41;17.65;;;6.53;;
68993;SDS011;56054;50.968;5.816;2023-10-13T06:02:48;20.77;;;6.68;;
68993;SDS011;56054;50.968;5.816;2023-10-13T06:05:56;15.60;;;5.57;;
68993;SDS011;56054;50.968;5.816;2023-10-13T06:09:03;15.88;;;7.45;;
68993;SDS011;56054;50.968;5.816;2023-10-13T06:12:09;20.35;;;5.85;;
68993;SDS011;56054;50.968;5.816;2023-10-13T06:15:16;20.17;;;5.75;;
68993;SDS011;56054;50.968;5.816;2023-10-13T06:18:25;23.17;;;6.03;;
68993;SDS011;56054;50.968;5.816;2023-10-13T06:21:34;13.75;;;5.18;;
68993;SDS011;56054;50.968;5.816;2023-10-13T06:24:40;16.73;;;5.43;;
68993;SDS011;56054;50.968;5.816;2023-10-13T06:27:48;16.00;;;5.03;;
68993;SDS011;56054;50.968;5.816;2023-10-13T06:30:58;12.20;;;5.55;;
68993;SDS011;56054;50.968;5.816;2023-10-13T06:34:06;11.73;;;5.20;;
68993;SDS011;56054;50.968;5.816;2023-10-13T06:37:16;21.83;;;5.25;;
68993;SDS011;56054;50.968;5.816;2023-10-13T06:40:24;17.60;;;5.68;;
68993;SDS011;56054;50.968;5.816;2023-10-13T06:43:39;20.17;;;4.88;;
68993;SDS011;56054;50.968;5.816;2023-10-13T06:46:47;16.45;;;4.68;;
68993;SDS011;56054;50.968;5.816;2023-10-13T06:49:54;14.70;;;5.60;;
68993;SDS011;56054;50.968;5.816;2023-10-13T06:53:02;11.73;;;5.38;;
68993;SDS011;56054;50.968;5.816;2023-10-13T06:56:10;15.63;;;4.68;;
68993;SDS011;56054;50.968;5.816;2023-10-13T06:59:17;19.35;;;4.85;;
68993;SDS011;56054;50.968;5.816;2023-10-13T07:02:24;19.40;;;5.45;;
68993;SDS011;56054;50.968;5.816;2023-10-13T07:05:49;19.60;;;5.13;;
68993;SDS011;56054;50.968;5.816;2023-10-13T07:08:56;16.10;;;5.00;;
68993;SDS011;56054;50.968;5.816;2023-10-13T07:12:03;13.20;;;4.28;;
68993;SDS011;56054;50.968;5.816;2023-10-13T07:15:12;14.32;;;5.07;;
68993;SDS011;56054;50.968;5.816;2023-10-13T07:18:19;15.32;;;4.65;;
68993;SDS011;56054;50.968;5.816;2023-10-13T07:21:26;16.60;;;5.38;;
68993;SDS011;56054;50.968;5.816;2023-10-13T07:24:33;15.93;;;4.93;;
68993;SDS011;56054;50.968;5.816;2023-10-13T07:27:41;13.30;;;4.78;;
68993;SDS011;56054;50.968;5.816;2023-10-13T07:30:48;12.57;;;4.40;;
68993;SDS011;56054;50.968;5.816;2023-10-13T07:33:55;13.75;;;4.68;;
68993;SDS011;56054;50.968;5.816;2023-10-13T07:37:02;19.95;;;5.32;;
68993;SDS011;56054;50.968;5.816;2023-10-13T07:40:09;13.23;;;4.60;;
68993;SDS011;56054;50.968;5.816;2023-10-13T07:43:16;15.07;;;4.55;;
68993;SDS011;56054;50.968;5.816;2023-10-13T07:46:23;22.60;;;4.30;;
68993;SDS011;56054;50.968;5.816;2023-10-13T07:49:30;14.30;;;5.00;;
68993;SDS011;56054;50.968;5.816;2023-10-13T07:52:47;13.77;;;4.95;;
68993;SDS011;56054;50.968;5.816;2023-10-13T07:55:54;20.85;;;5.05;;
68993;SDS011;56054;50.968;5.816;2023-10-13T07:59:01;19.00;;;4.70;;
68993;SDS011;56054;50.968;5.816;2023-10-13T08:02:08;13.13;;;4.28;;
68993;SDS011;56054;50.968;5.816;2023-10-13T08:05:17;18.02;;;4.43;;
68993;SDS011;56054;50.968;5.816;2023-10-13T08:08:25;12.20;;;4.32;;
68993;SDS011;56054;50.968;5.816;2023-10-13T08:11:33;22.88;;;4.45;;
68993;SDS011;56054;50.968;5.816;2023-10-13T08:14:41;14.75;;;4.30;;
68993;SDS011;56054;50.968;5.816;2023-10-13T08:17:48;21.60;;;4.45;;
68993;SDS011;56054;50.968;5.816;2023-10-13T08:20:55;16.70;;;4.57;;
68993;SDS011;56054;50.968;5.816;2023-10-13T08:24:03;20.98;;;4.00;;
68993;SDS011;56054;50.968;5.816;2023-10-13T08:27:10;15.73;;;4.82;;
68993;SDS011;56054;50.968;5.816;2023-10-13T08:30:19;20.60;;;5.65;;
68993;SDS011;56054;50.968;5.816;2023-10-13T08:33:26;19.35;;;4.25;;
68993;SDS011;56054;50.968;5.816;2023-10-13T08:36:35;13.80;;;4.97;;
68993;SDS011;56054;50.968;5.816;2023-10-13T08:39:42;13.30;;;4.53;;
68993;SDS011;56054;50.968;5.816;2023-10-13T08:42:49;17.33;;;4.78;;
68993;SDS011;56054;50.968;5.816;2023-10-13T08:45:58;17.77;;;5.03;;
68993;SDS011;56054;50.968;5.816;2023-10-13T08:49:05;13.50;;;4.65;;
68993;SDS011;56054;50.968;5.816;2023-10-13T08:52:14;13.07;;;5.05;;
68993;SDS011;56054;50.968;5.816;2023-10-13T08:55:23;15.18;;;4.90;;
68993;SDS011;56054;50.968;5.816;2023-10-13T08:58:30;25.52;;;5.05;;
68993;SDS011;56054;50.968;5.816;2023-10-13T09:01:38;9.68;;;4.20;;
68993;SDS011;56054;50.968;5.816;2023-10-13T09:04:45;17.65;;;4.88;;
68993;SDS011;56054;50.968;5.816;2023-10-13T09:07:52;16.42;;;5.50;;
68993;SDS011;56054;50.968;5.816;2023-10-13T09:10:59;17.48;;;5.03;;
68993;SDS011;56054;50.968;5.816;2023-10-13T09:14:12;17.92;;;4.90;;
68993;SDS011;56054;50.968;5.816;2023-10-13T09:17:20;11.65;;;4.40;;
68993;SDS011;56054;50.968;5.816;2023-10-13T09:20:31;15.07;;;5.15;;
68993;SDS011;56054;50.968;5.816;2023-10-13T09:23:45;13.30;;;5.10;;
68993;SDS011;56054;50.968;5.816;2023-10-13T09:26:53;16.65;;;5.22;;
68993;SDS011;56054;50.968;5.816;2023-10-13T09:30:03;13.68;;;4.45;;
68993;SDS011;56054;50.968;5.816;2023-10-13T09:33:12;11.93;;;5.15;;
68993;SDS011;56054;50.968;5.816;2023-10-13T09:36:19;12.95;;;5.05;;
68993;SDS011;56054;50.968;5.816;2023-10-13T09:39:26;13.52;;;5.15;;
68993;SDS011;56054;50.968;5.816;2023-10-13T09:42:33;15.27;;;5.07;;
68993;SDS011;56054;50.968;5.816;2023-10-13T09:45:40;11.73;;;4.55;;
68993;SDS011;56054;50.968;5.816;2023-10-13T09:48:50;13.63;;;5.50;;
68993;SDS011;56054;50.968;5.816;2023-10-13T09:52:01;14.55;;;5.88;;
68993;SDS011;56054;50.968;5.816;2023-10-13T09:55:30;16.27;;;5.15;;
68993;SDS011;56054;50.968;5.816;2023-10-13T09:58:42;11.32;;;4.75;;
68993;SDS011;56054;50.968;5.816;2023-10-13T10:01:57;12.70;;;5.35;;
68993;SDS011;56054;50.968;5.816;2023-10-13T10:05:05;14.02;;;5.72;;
68993;SDS011;56054;50.968;5.816;2023-10-13T10:08:12;16.90;;;5.30;;
68993;SDS011;56054;50.968;5.816;2023-10-13T10:11:55;19.92;;;5.63;;
68993;SDS011;56054;50.968;5.816;2023-10-13T10:18:48;10.93;;;5.15;;
68993;SDS011;56054;50.968;5.816;2023-10-13T10:22:07;13.93;;;5.47;;
68993;SDS011;56054;50.968;5.816;2023-10-13T10:25:14;15.05;;;5.13;;
68993;SDS011;56054;50.968;5.816;2023-10-13T10:28:21;11.85;;;4.82;;
68993;SDS011;56054;50.968;5.816;2023-10-13T10:31:31;15.13;;;7.05;;
68993;SDS011;56054;50.968;5.816;2023-10-13T10:34:39;21.98;;;6.53;;
68993;SDS011;56054;50.968;5.816;2023-10-13T10:37:46;18.80;;;5.63;;
68993;SDS011;56054;50.968;5.816;2023-10-13T10:40:54;11.68;;;5.13;;
68993;SDS011;56054;50.968;5.816;2023-10-13T10:44:02;17.25;;;5.57;;
68993;SDS011;56054;50.968;5.816;2023-10-13T10:47:12;15.52;;;5.78;;
68993;SDS011;56054;50.968;5.816;2023-10-13T10:50:29;17.83;;;5.55;;
68993;SDS011;56054;50.968;5.816;2023-10-13T10:53:36;14.07;;;5.40;;
68993;SDS011;56054;50.968;5.816;2023-10-13T10:56:43;17.52;;;5.95;;
68993;SDS011;56054;50.968;5.816;2023-10-13T10:59:50;16.27;;;5.22;;
68993;SDS011;56054;50.968;5.816;2023-10-13T11:02:57;14.60;;;5.20;;
68993;SDS011;56054;50.968;5.816;2023-10-13T11:06:11;19.23;;;5.70;;
68993;SDS011;56054;50.968;5.816;2023-10-13T11:09:23;17.02;;;5.28;;
68993;SDS011;56054;50.968;5.816;2023-10-13T11:12:33;26.35;;;4.93;;
68993;SDS011;56054;50.968;5.816;2023-10-13T11:15:41;17.65;;;4.93;;
68993;SDS011;56054;50.968;5.816;2023-10-13T11:19:03;15.10;;;5.10;;
68993;SDS011;56054;50.968;5.816;2023-10-13T11:22:17;18.73;;;4.38;;
68993;SDS011;56054;50.968;5.816;2023-10-13T11:25:29;15.68;;;5.72;;
68993;SDS011;56054;50.968;5.816;2023-10-13T11:28:38;26.45;;;5.32;;
68993;SDS011;56054;50.968;5.816;2023-10-13T11:31:46;16.30;;;4.55;;
68993;SDS011;56054;50.968;5.816;2023-10-13T11:34:54;20.67;;;5.25;;
68993;SDS011;56054;50.968;5.816;2023-10-13T11:38:01;18.95;;;6.40;;
68993;SDS011;56054;50.968;5.816;2023-10-13T11:41:08;21.77;;;5.78;;
68993;SDS011;56054;50.968;5.816;2023-10-13T11:44:15;15.82;;;3.75;;
68993;SDS011;56054;50.968;5.816;2023-10-13T11:47:22;19.67;;;4.95;;
68993;SDS011;56054;50.968;5.816;2023-10-13T11:50:29;23.00;;;5.00;;
68993;SDS011;56054;50.968;5.816;2023-10-13T11:53:36;14.45;;;5.22;;
68993;SDS011;56054;50.968;5.816;2023-10-13T11:56:44;16.05;;;4.30;;
68993;SDS011;56054;50.968;5.816;2023-10-13T11:59:52;11.88;;;4.38;;
68993;SDS011;56054;50.968;5.816;2023-10-13T12:02:59;15.02;;;5.13;;
68993;SDS011;56054;50.968;5.816;2023-10-13T12:06:08;23.73;;;3.80;;
68993;SDS011;56054;50.968;5.816;2023-10-13T12:09:16;20.15;;;4.63;;
68993;SDS011;56054;50.968;5.816;2023-10-13T12:12:23;16.88;;;4.55;;
68993;SDS011;56054;50.968;5.816;2023-10-13T12:15:32;19.17;;;5.15;;
68993;SDS011;56054;50.968;5.816;2023-10-13T12:18:40;17.85;;;4.30;;
68993;SDS011;56054;50.968;5.816;2023-10-13T12:21:47;14.75;;;4.45;;
68993;SDS011;56054;50.968;5.816;2023-10-13T12:24:54;12.48;;;4.28;;
68993;SDS011;56054;50.968;5.816;2023-10-13T12:28:02;15.48;;;4.82;;
68993;SDS011;56054;50.968;5.816;2023-10-13T12:31:09;15.07;;;4.53;;
68993;SDS011;56054;50.968;5.816;2023-10-13T12:34:16;12.55;;;4.80;;
68993;SDS011;56054;50.968;5.816;2023-10-13T12:37:23;26.23;;;5.38;;
68993;SDS011;56054;50.968;5.816;2023-10-13T12:40:31;20.80;;;5.53;;
68993;SDS011;56054;50.968;5.816;2023-10-13T12:43:38;16.73;;;4.80;;
68993;SDS011;56054;50.968;5.816;2023-10-13T12:46:45;22.38;;;4.38;;
68993;SDS011;56054;50.968;5.816;2023-10-13T12:49:52;19.88;;;5.95;;
68993;SDS011;56054;50.968;5.816;2023-10-13T12:52:59;16.48;;;6.05;;
68993;SDS011;56054;50.968;5.816;2023-10-13T12:56:06;19.58;;;4.82;;
68993;SDS011;56054;50.968;5.816;2023-10-13T12:59:13;22.25;;;4.05;;
68993;SDS011;56054;50.968;5.816;2023-10-13T13:02:20;22.23;;;5.75;;
68993;SDS011;56054;50.968;5.816;2023-10-13T13:05:28;19.98;;;5.05;;
68993;SDS011;56054;50.968;5.816;2023-10-13T13:08:35;22.85;;;4.60;;
68993;SDS011;56054;50.968;5.816;2023-10-13T13:11:42;17.00;;;4.75;;
68993;SDS011;56054;50.968;5.816;2023-10-13T13:14:49;14.43;;;4.57;;
68993;SDS011;56054;50.968;5.816;2023-10-13T13:17:56;19.10;;;4.43;;
68993;SDS011;56054;50.968;5.816;2023-10-13T13:21:03;18.50;;;4.70;;
68993;SDS011;56054;50.968;5.816;2023-10-13T13:24:10;18.83;;;5.55;;
68993;SDS011;56054;50.968;5.816;2023-10-13T13:27:17;15.88;;;4.57;;
68993;SDS011;56054;50.968;5.816;2023-10-13T13:30:24;18.73;;;4.43;;
68993;SDS011;56054;50.968;5.816;2023-10-13T13:33:31;13.73;;;3.90;;
68993;SDS011;56054;50.968;5.816;2023-10-13T13:36:38;18.98;;;4.55;;
68993;SDS011;56054;50.968;5.816;2023-10-13T13:39:45;17.67;;;4.03;;
68993;SDS011;56054;50.968;5.816;2023-10-13T13:42:52;15.85;;;5.45;;
68993;SDS011;56054;50.968;5.816;2023-10-13T13:45:59;24.33;;;4.93;;
68993;SDS011;56054;50.968;5.816;2023-10-13T13:49:06;17.73;;;4.88;;
68993;SDS011;56054;50.968;5.816;2023-10-13T13:52:13;26.15;;;5.28;;
68993;SDS011;56054;50.968;5.816;2023-10-13T13:55:20;15.70;;;4.75;;
68993;SDS011;56054;50.968;5.816;2023-10-13T13:58:27;14.63;;;3.90;;
68993;SDS011;56054;50.968;5.816;2023-10-13T14:01:34;17.17;;;4.45;;
68993;SDS011;56054;50.968;5.816;2023-10-13T14:04:41;13.02;;;3.85;;
68993;SDS011;56054;50.968;5.816;2023-10-13T14:07:48;11.45;;;4.18;;
68993;SDS011;56054;50.968;5.816;2023-10-13T14:10:56;11.70;;;4.50;;
68993;SDS011;56054;50.968;5.816;2023-10-13T14:14:03;11.65;;;4.25;;
68993;SDS011;56054;50.968;5.816;2023-10-13T14:17:10;12.35;;;5.15;;
68993;SDS011;56054;50.968;5.816;2023-10-13T14:20:17;11.50;;;3.85;;
68993;SDS011;56054;50.968;5.816;2023-10-13T14:23:24;15.07;;;3.65;;
68993;SDS011;56054;50.968;5.816;2023-10-13T14:26:31;18.88;;;4.53;;
68993;SDS011;56054;50.968;5.816;2023-10-13T14:29:38;14.15;;;3.78;;
68993;SDS011;56054;50.968;5.816;2023-10-13T14:32:45;10.77;;;3.92;;
68993;SDS011;56054;50.968;5.816;2023-10-13T14:35:52;15.30;;;3.80;;
68993;SDS011;56054;50.968;5.816;2023-10-13T14:38:59;11.88;;;3.47;;
68993;SDS011;56054;50.968;5.816;2023-10-13T14:42:06;17.65;;;4.00;;
68993;SDS011;56054;50.968;5.816;2023-10-13T14:45:13;15.88;;;4.13;;
68993;SDS011;56054;50.968;5.816;2023-10-13T14:48:20;16.60;;;3.80;;
68993;SDS011;56054;50.968;5.816;2023-10-13T14:51:27;13.10;;;4.07;;
68993;SDS011;56054;50.968;5.816;2023-10-13T14:54:34;15.18;;;4.20;;
68993;SDS011;56054;50.968;5.816;2023-10-13T14:57:41;14.55;;;4.47;;
68993;SDS011;56054;50.968;5.816;2023-10-13T15:00:48;13.23;;;4.03;;
68993;SDS011;56054;50.968;5.816;2023-10-13T15:03:55;13.65;;;4.43;;
68993;SDS011;56054;50.968;5.816;2023-10-13T15:07:02;11.30;;;4.13;;
68993;SDS011;56054;50.968;5.816;2023-10-13T15:10:09;12.18;;;3.72;;
68993;SDS011;56054;50.968;5.816;2023-10-13T15:13:16;13.77;;;3.70;;
68993;SDS011;56054;50.968;5.816;2023-10-13T15:16:23;11.40;;;3.97;;
68993;SDS011;56054;50.968;5.816;2023-10-13T15:19:32;8.82;;;4.05;;
68993;SDS011;56054;50.968;5.816;2023-10-13T15:22:39;18.70;;;4.15;;
68993;SDS011;56054;50.968;5.816;2023-10-13T15:25:46;13.65;;;5.10;;
68993;SDS011;56054;50.968;5.816;2023-10-13T15:28:53;11.88;;;3.88;;
68993;SDS011;56054;50.968;5.816;2023-10-13T15:32:00;10.40;;;4.00;;
68993;SDS011;56054;50.968;5.816;2023-10-13T15:35:07;16.42;;;3.92;;
68993;SDS011;56054;50.968;5.816;2023-10-13T15:38:14;7.90;;;3.47;;
68993;SDS011;56054;50.968;5.816;2023-10-13T15:41:24;14.98;;;3.97;;
68993;SDS011;56054;50.968;5.816;2023-10-13T15:44:33;10.02;;;4.28;;
68993;SDS011;56054;50.968;5.816;2023-10-13T15:47:41;11.38;;;3.60;;
68993;SDS011;56054;50.968;5.816;2023-10-13T15:50:48;18.50;;;3.97;;
68993;SDS011;56054;50.968;5.816;2023-10-13T15:53:55;11.68;;;3.90;;
68993;SDS011;56054;50.968;5.816;2023-10-13T15:57:02;12.18;;;3.53;;
68993;SDS011;56054;50.968;5.816;2023-10-13T16:00:10;17.15;;;5.00;;
68993;SDS011;56054;50.968;5.816;2023-10-13T16:03:18;14.48;;;4.13;;
68993;SDS011;56054;50.968;5.816;2023-10-13T16:06:25;9.13;;;3.60;;
68993;SDS011;56054;50.968;5.816;2023-10-13T16:09:32;11.40;;;3.78;;
68993;SDS011;56054;50.968;5.816;2023-10-13T16:12:39;18.88;;;4.38;;
68993;SDS011;56054;50.968;5.816;2023-10-13T16:15:46;16.73;;;4.15;;
68993;SDS011;56054;50.968;5.816;2023-10-13T16:18:53;18.63;;;3.85;;
68993;SDS011;56054;50.968;5.816;2023-10-13T16:22:00;17.08;;;4.13;;
68993;SDS011;56054;50.968;5.816;2023-10-13T16:25:07;10.70;;;4.28;;
68993;SDS011;56054;50.968;5.816;2023-10-13T16:28:14;13.73;;;3.88;;
68993;SDS011;56054;50.968;5.816;2023-10-13T16:31:21;19.08;;;4.70;;
68993;SDS011;56054;50.968;5.816;2023-10-13T16:34:28;11.73;;;3.95;;
68993;SDS011;56054;50.968;5.816;2023-10-13T16:37:35;12.45;;;3.92;;
68993;SDS011;56054;50.968;5.816;2023-10-13T16:40:42;10.43;;;4.18;;
68993;SDS011;56054;50.968;5.816;2023-10-13T16:43:49;11.82;;;4.10;;
68993;SDS011;56054;50.968;5.816;2023-10-13T16:46:56;17.83;;;4.85;;
68993;SDS011;56054;50.968;5.816;2023-10-13T16:50:03;10.90;;;4.18;;
68993;SDS011;56054;50.968;5.816;2023-10-13T16:53:10;14.20;;;4.25;;
68993;SDS011;56054;50.968;5.816;2023-10-13T16:56:20;7.97;;;3.97;;
68993;SDS011;56054;50.968;5.816;2023-10-13T16:59:27;12.25;;;4.03;;
68993;SDS011;56054;50.968;5.816;2023-10-13T17:02:34;13.07;;;4.32;;
68993;SDS011;56054;50.968;5.816;2023-10-13T17:05:48;7.38;;;3.72;;
68993;SDS011;56054;50.968;5.816;2023-10-13T17:08:55;14.05;;;4.47;;
68993;SDS011;56054;50.968;5.816;2023-10-13T17:12:02;18.55;;;4.28;;
68993;SDS011;56054;50.968;5.816;2023-10-13T17:15:09;15.30;;;4.68;;
68993;SDS011;56054;50.968;5.816;2023-10-13T17:18:17;9.27;;;4.95;;
68993;SDS011;56054;50.968;5.816;2023-10-13T17:21:24;13.85;;;4.55;;
68993;SDS011;56054;50.968;5.816;2023-10-13T17:24:40;9.48;;;3.67;;
68993;SDS011;56054;50.968;5.816;2023-10-13T17:27:47;12.38;;;4.30;;
68993;SDS011;56054;50.968;5.816;2023-10-13T17:30:54;13.35;;;4.30;;
68993;SDS011;56054;50.968;5.816;2023-10-13T17:34:01;13.20;;;4.32;;
68993;SDS011;56054;50.968;5.816;2023-10-13T17:37:08;14.10;;;4.15;;
68993;SDS011;56054;50.968;5.816;2023-10-13T17:40:15;9.02;;;3.95;;
68993;SDS011;56054;50.968;5.816;2023-10-13T17:43:22;10.27;;;4.30;;
68993;SDS011;56054;50.968;5.816;2023-10-13T17:46:29;14.65;;;4.38;;
68993;SDS011;56054;50.968;5.816;2023-10-13T17:49:36;16.67;;;4.03;;
68993;SDS011;56054;50.968;5.816;2023-10-13T17:52:45;8.40;;;3.95;;
68993;SDS011;56054;50.968;5.816;2023-10-13T17:55:52;17.40;;;4.13;;
68993;SDS011;56054;50.968;5.816;2023-10-13T17:58:59;14.07;;;6.07;;
68993;SDS011;56054;50.968;5.816;2023-10-13T18:02:06;20.55;;;4.00;;
68993;SDS011;56054;50.968;5.816;2023-10-13T18:05:13;14.40;;;5.05;;
68993;SDS011;56054;50.968;5.816;2023-10-13T18:08:21;13.40;;;4.57;;
68993;SDS011;56054;50.968;5.816;2023-10-13T18:11:29;15.30;;;4.78;;
68993;SDS011;56054;50.968;5.816;2023-10-13T18:14:36;17.20;;;4.43;;
68993;SDS011;56054;50.968;5.816;2023-10-13T18:17:43;11.52;;;4.97;;
68993;SDS011;56054;50.968;5.816;2023-10-13T18:21:00;16.67;;;4.97;;
68993;SDS011;56054;50.968;5.816;2023-10-13T18:24:07;15.60;;;5.13;;
68993;SDS011;56054;50.968;5.816;2023-10-13T18:27:14;15.45;;;5.25;;
68993;SDS011;56054;50.968;5.816;2023-10-13T18:30:21;14.60;;;4.68;;
68993;SDS011;56054;50.968;5.816;2023-10-13T18:33:28;11.95;;;4.53;;
68993;SDS011;56054;50.968;5.816;2023-10-13T18:36:35;18.83;;;5.95;;
68993;SDS011;56054;50.968;5.816;2023-10-13T18:39:42;12.52;;;4.75;;